Hauptseite
METAR-TAF:

METAR-TAF

Flughäfen :

Flughafen Ben Gurion

Tel Aviv / Ben Gurion, Israel

Breite: 32-00N, Länge: 034-54E, Höhe: 40 m

Beobachtung

Neuester Wetterbericht von vor 26 Minuten, um 18:20 UTC
Wind 3 kt aus unterschiedlichen Richtungen
Temperatur 17°C
Luftfeuchtigkeit 88%
Luftdruck 1021 hPa
Sichtweite 10 km oder mehr
Aufgelockert bewölkt in der Höhe von 5000 ft

METAR: LLBG 161820Z VRB03KT 9999 SCT050 17/15 Q1021 NOSIG

Zeit: 20:46 (18:46 UTC)

Prognose

Neuester Wetterbericht von vor 1 Stunde und 45 Minuten, um 17:01 UTC
Gültige Prognose vom 16 um 18 UTC bis 17 um 18 UTC
Wind 5 kt aus Süd/Südost
Sichtweite 10 km oder mehr
Aufgelockert bewölkt in der Höhe von 3500 ft
Übergehend zu
vom 17 um 07 UTC bis 17 um 09 UTC
Wind 8 kt aus Nord/Nordwest
Leicht bewölkt in der Höhe von 4000 ft

TAF: LLBG 161701Z 1618/1718 15005KT 9999 SCT035 BECMG 1707/1709 33008KT FEW040 TX24/1712Z TN13/1704Z

Wetterbeobachtungen und Prognosen von mehr als 4000 Flughäfen (METAR und TAF Bericht).

Die verfügbaren Stationen werden durch gelbe und rote Markierungen auf der Karte dargestellt.

Führen Sie die Maus auf sie, um den Namen der Station zu sehen.

Darauf klicken, um die Beobachtung von Wetterbeobachtungen und Prognosen zu sehen.

Um die Karte zu ändern : klicken Sie auf den grünen Tasten mit einem schwarzen Kreuz Zum Vergrößern, auf den grünen Button mit einem Gedankenstrich zu verkleinern, oder auf die grünen Pfeile für benachbarte Karten.


METAR-TAF: